createdAt,value
2018-08-07T00:01:38.465Z,97757.89
2018-08-07T00:04:07.838Z,97758.96
2018-08-07T00:06:37.382Z,97763.91
2018-08-07T00:09:10.784Z,97765.04
2018-08-07T00:11:40.205Z,97760.29
2018-08-07T00:14:09.380Z,97763.73
2018-08-07T00:16:38.828Z,97758.45
2018-08-07T00:19:08.169Z,97755.30
2018-08-07T00:21:37.636Z,97755.77
2018-08-07T00:24:07.133Z,97745.98
2018-08-07T00:26:36.552Z,97748.38
2018-08-07T00:29:05.894Z,97746.20
2018-08-07T00:31:35.357Z,97743.34
2018-08-07T00:34:04.733Z,97743.52
2018-08-07T00:36:33.904Z,97743.30
2018-08-07T00:39:03.240Z,97748.63
2018-08-07T00:41:32.650Z,97740.14
2018-08-07T00:44:01.992Z,97744.94
2018-08-07T00:46:31.544Z,97742.48
2018-08-07T00:49:00.723Z,97739.68
2018-08-07T00:51:30.217Z,97733.80
2018-08-07T00:53:59.671Z,97739.73
2018-08-07T00:56:29.109Z,97736.30
2018-08-07T00:58:58.524Z,97734.44
2018-08-07T01:01:28.013Z,97738.02
2018-08-07T01:03:57.421Z,97734.25
2018-08-07T01:06:26.952Z,97739.07
2018-08-07T01:08:56.377Z,97738.41
2018-08-07T01:11:25.789Z,97734.48
2018-08-07T01:13:55.209Z,97729.02
2018-08-07T01:16:24.602Z,97733.88
2018-08-07T01:18:54.160Z,97729.41
2018-08-07T01:21:23.652Z,97728.92
2018-08-07T01:23:53.044Z,97724.42
2018-08-07T01:26:22.568Z,97723.37
2018-08-07T01:28:51.966Z,97719.53
2018-08-07T01:31:21.461Z,97719.17
2018-08-07T01:33:50.857Z,97715.23
2018-08-07T01:36:20.356Z,97715.34
2018-08-07T01:38:49.756Z,97712.80
2018-08-07T01:41:19.179Z,97715.86
2018-08-07T01:43:48.589Z,97714.41
2018-08-07T01:46:18.012Z,97707.64
2018-08-07T01:48:47.377Z,97707.58
2018-08-07T01:51:16.840Z,97719.27
2018-08-07T01:53:46.180Z,97721.08
2018-08-07T01:56:15.621Z,97717.98
2018-08-07T01:58:44.977Z,97717.27
2018-08-07T02:01:14.324Z,97717.95
2018-08-07T02:03:43.394Z,97720.33
2018-08-07T02:06:12.846Z,97721.28
2018-08-07T02:08:42.178Z,97725.61
2018-08-07T02:11:11.549Z,97721.84
2018-08-07T02:13:40.876Z,97725.24
2018-08-07T02:16:10.247Z,97726.47
2018-08-07T02:18:39.312Z,97720.08
2018-08-07T02:21:08.720Z,97716.22
2018-08-07T02:23:38.080Z,97712.46
2018-08-07T02:26:07.445Z,97706.55
2018-08-07T02:28:36.785Z,97712.35
2018-08-07T02:31:06.250Z,97715.09
2018-08-07T02:33:35.329Z,97711.61
2018-08-07T02:36:04.773Z,97710.94
2018-08-07T02:38:34.113Z,97713.95
2018-08-07T02:41:03.560Z,97706.63
2018-08-07T02:43:32.889Z,97707.75
2018-08-07T02:46:02.325Z,97703.84
2018-08-07T02:48:31.697Z,97699.97
2018-08-07T02:51:01.055Z,97703.47
2018-08-07T02:53:30.393Z,97704.91
2018-08-07T02:55:59.738Z,97706.91
2018-08-07T02:58:29.092Z,97703.11
2018-08-07T03:00:58.461Z,97708.66
2018-08-07T03:03:27.804Z,97705.25
2018-08-07T03:05:57.165Z,97705.63
2018-08-07T03:08:26.509Z,97707.52
2018-08-07T03:10:55.871Z,97712.88
2018-08-07T03:13:24.963Z,97709.54
2018-08-07T03:15:54.125Z,97719.98
2018-08-07T03:18:23.478Z,97718.90
2018-08-07T03:20:52.860Z,97716.88
2018-08-07T03:23:21.952Z,97721.57
2018-08-07T03:25:51.112Z,97720.59
2018-08-07T03:28:20.459Z,97725.30
2018-08-07T03:30:49.621Z,97718.20
2018-08-07T03:33:18.958Z,97720.19
2018-08-07T03:35:48.378Z,97722.31
2018-08-07T03:38:17.713Z,97730.59
2018-08-07T03:40:47.149Z,97734.39
2018-08-07T03:43:16.520Z,97738.59
2018-08-07T03:45:45.960Z,97739.22
2018-08-07T03:48:15.088Z,97738.78
2018-08-07T03:50:44.504Z,97745.34
2018-08-07T03:53:13.899Z,97741.05
2018-08-07T03:55:43.301Z,97742.20
2018-08-07T03:58:12.712Z,97744.50
2018-08-07T04:00:49.188Z,97743.06
2018-08-07T04:03:19.016Z,97745.98
2018-08-07T04:05:48.509Z,97743.09
2018-08-07T04:08:17.921Z,97744.44
2018-08-07T04:10:47.452Z,97747.77
2018-08-07T04:13:16.566Z,97748.16
2018-08-07T04:15:45.997Z,97747.20
2018-08-07T04:18:15.399Z,97747.97
2018-08-07T04:20:44.809Z,97736.84
2018-08-07T04:23:14.207Z,97746.23
2018-08-07T04:25:43.617Z,97746.13
2018-08-07T04:28:13.017Z,97748.54
2018-08-07T04:30:42.432Z,97741.86
2018-08-07T04:33:11.812Z,97744.06
2018-08-07T04:35:41.257Z,97743.75
2018-08-07T04:38:10.652Z,97738.98
2018-08-07T04:40:40.166Z,97744.67
2018-08-07T04:43:09.585Z,97747.84
2018-08-07T04:45:39.048Z,97748.08
2018-08-07T04:48:08.656Z,97757.04
2018-08-07T04:50:38.162Z,97756.14
2018-08-07T04:53:07.542Z,97750.83
2018-08-07T04:55:36.945Z,97754.50
2018-08-07T04:58:06.441Z,97750.80
2018-08-07T05:00:35.921Z,97761.88
2018-08-07T05:03:05.071Z,97762.06
2018-08-07T05:05:34.601Z,97760.65
2018-08-07T05:08:04.001Z,97753.88
2018-08-07T05:10:33.590Z,97764.84
2018-08-07T05:13:02.929Z,97763.13
2018-08-07T05:15:32.139Z,97761.08
2018-08-07T05:18:01.541Z,97758.70
2018-08-07T05:20:30.997Z,97761.97
2018-08-07T05:23:00.423Z,97767.78
2018-08-07T05:25:30.217Z,97772.69
2018-08-07T05:27:59.632Z,97762.91
2018-08-07T05:30:29.107Z,97767.01
2018-08-07T05:32:58.495Z,97766.02
2018-08-07T05:35:27.928Z,97762.63
2018-08-07T05:37:57.328Z,97765.23
2018-08-07T05:40:26.804Z,97766.45
2018-08-07T05:42:56.209Z,97763.05
2018-08-07T05:45:25.626Z,97760.47
2018-08-07T05:47:55.045Z,97753.02
2018-08-07T05:50:24.714Z,97759.36
2018-08-07T05:52:53.931Z,97763.95
2018-08-07T05:55:23.356Z,97768.73
2018-08-07T05:57:52.776Z,97769.41
2018-08-07T06:00:22.245Z,97775.85
2018-08-07T06:02:51.682Z,97775.77
2018-08-07T06:05:22.820Z,97774.61
2018-08-07T06:07:52.246Z,97769.04
2018-08-07T06:10:21.454Z,97773.15
2018-08-07T06:12:50.590Z,97774.23
2018-08-07T06:15:19.990Z,97776.29
2018-08-07T06:17:49.386Z,97778.46
2018-08-07T06:20:19.832Z,97777.02
2018-08-07T06:22:49.275Z,97779.94
2018-08-07T06:25:18.793Z,97779.98
2018-08-07T06:27:48.220Z,97781.98
2018-08-07T06:30:19.930Z,97784.83
2018-08-07T06:32:50.340Z,97788.17
2018-08-07T06:35:20.147Z,97779.16
2018-08-07T06:37:49.627Z,97793.78
2018-08-07T06:40:19.033Z,97794.17
2018-08-07T06:42:48.506Z,97794.94
2018-08-07T06:45:18.499Z,97792.70
2018-08-07T06:47:47.858Z,97791.33
2018-08-07T06:50:20.325Z,97793.28
2018-08-07T06:52:50.471Z,97791.23
2018-08-07T06:55:19.941Z,97795.12
2018-08-07T06:57:49.278Z,97793.56
2018-08-07T07:00:23.227Z,97783.58
2018-08-07T07:02:53.390Z,97784.87
2018-08-07T07:05:22.881Z,97786.10
2018-08-07T07:07:52.317Z,97785.48
2018-08-07T07:10:21.745Z,97783.61
2018-08-07T07:12:50.829Z,97789.45
2018-08-07T07:15:20.473Z,97783.97
2018-08-07T07:17:49.864Z,97781.88
2018-08-07T07:20:19.667Z,97774.80
2018-08-07T07:22:49.572Z,97778.15
2018-08-07T07:25:18.989Z,97778.54
2018-08-07T07:27:48.084Z,97786.70
2018-08-07T07:30:20.219Z,97781.34
2018-08-07T07:32:50.945Z,97779.48
2018-08-07T07:35:20.647Z,97781.13
2018-08-07T07:37:50.257Z,97777.19
2018-08-07T07:40:19.698Z,97778.62
2018-08-07T07:42:48.789Z,97778.15
2018-08-07T07:45:19.400Z,97779.75
2018-08-07T07:47:48.745Z,97779.45
2018-08-07T07:50:19.943Z,97780.38
2018-08-07T07:52:49.307Z,97786.88
2018-08-07T07:55:19.445Z,97780.53
2018-08-07T07:57:48.926Z,97776.84
2018-08-07T08:00:25.217Z,97774.39
2018-08-07T08:02:54.804Z,97771.49
2018-08-07T08:05:25.856Z,97774.77
2018-08-07T08:07:55.584Z,97764.03
2018-08-07T08:10:25.010Z,97764.03
2018-08-07T08:12:54.361Z,97769.56
2018-08-07T08:15:23.728Z,97771.42
2018-08-07T08:17:52.817Z,97763.91
2018-08-07T08:20:23.933Z,97765.25
2018-08-07T08:22:53.949Z,97764.67
2018-08-07T08:25:23.312Z,97763.14
2018-08-07T08:27:52.661Z,97754.59
2018-08-07T08:30:22.094Z,97760.04
2018-08-07T08:32:51.242Z,97760.84
2018-08-07T08:35:21.004Z,97747.20
2018-08-07T08:37:50.578Z,97748.16
2018-08-07T08:40:22.437Z,97747.41
2018-08-07T08:42:57.158Z,97739.88
2018-08-07T08:45:27.165Z,97742.95
2018-08-07T08:47:58.623Z,97740.72
2018-08-07T08:50:28.386Z,97747.52
2018-08-07T08:52:57.781Z,97747.55
2018-08-07T08:55:27.129Z,97747.20
2018-08-07T08:57:56.573Z,97741.65
2018-08-07T09:00:28.932Z,97738.86
2018-08-07T09:03:00.529Z,97739.31
2018-08-07T09:05:29.939Z,97731.95
2018-08-07T09:07:59.299Z,97730.59
2018-08-07T09:10:30.707Z,97727.68
2018-08-07T09:13:01.425Z,97734.20
2018-08-07T09:15:30.784Z,97729.83
2018-08-07T09:17:59.963Z,97729.83
2018-08-07T09:20:30.942Z,97724.11
2018-08-07T09:23:00.374Z,97723.22
2018-08-07T09:25:30.815Z,97717.31
2018-08-07T09:28:00.155Z,97717.32
2018-08-07T09:30:30.267Z,97714.25
2018-08-07T09:33:00.227Z,97714.56
2018-08-07T09:35:29.513Z,97711.12
2018-08-07T09:37:59.460Z,97713.02
2018-08-07T09:40:28.953Z,97703.91
2018-08-07T09:42:58.582Z,97711.06
2018-08-07T09:45:32.018Z,97711.11
2018-08-07T09:48:02.271Z,97701.41
2018-08-07T09:50:31.673Z,97702.39
2018-08-07T09:53:01.070Z,97702.27
2018-08-07T09:55:30.497Z,97698.10
2018-08-07T09:57:59.834Z,97700.08
2018-08-07T10:00:34.493Z,97688.77
2018-08-07T10:03:15.625Z,97692.88
2018-08-07T10:05:44.965Z,97681.38
2018-08-07T10:08:14.227Z,97688.91
2018-08-07T10:10:43.607Z,97687.67
2018-08-07T10:13:12.974Z,97685.27
2018-08-07T10:15:42.316Z,97678.44
2018-08-07T10:18:11.786Z,97673.66
2018-08-07T10:20:41.131Z,97666.69
2018-08-07T10:23:10.584Z,97669.41
2018-08-07T10:25:39.941Z,97674.45
2018-08-07T10:28:09.286Z,97665.96
2018-08-07T10:30:38.800Z,97657.78
2018-08-07T10:33:08.116Z,97656.08
2018-08-07T10:35:37.476Z,97654.48
2018-08-07T10:38:06.570Z,97654.36
2018-08-07T10:40:35.855Z,97649.73
2018-08-07T10:43:05.322Z,97651.71
2018-08-07T10:45:34.589Z,97647.83
2018-08-07T10:48:03.661Z,97647.47
2018-08-07T10:50:33.022Z,97645.29
2018-08-07T10:53:02.385Z,97640.16
2018-08-07T10:55:31.769Z,97629.85
2018-08-07T10:58:01.553Z,97629.55
2018-08-07T11:00:33.421Z,97623.81
2018-08-07T11:03:03.328Z,97627.37
2018-08-07T11:05:32.709Z,97624.13
2018-08-07T11:08:02.105Z,97622.78
2018-08-07T11:10:31.519Z,97618.64
2018-08-07T11:13:00.890Z,97623.29
2018-08-07T11:15:32.873Z,97623.41
2018-08-07T11:18:03.018Z,97621.66
2018-08-07T11:20:32.930Z,97612.75
2018-08-07T11:23:03.053Z,97614.95
2018-08-07T11:25:33.092Z,97612.78
2018-08-07T11:28:02.693Z,97615.85
2018-08-07T11:30:32.293Z,97619.65
2018-08-07T11:33:02.517Z,97616.37
2018-08-07T11:35:31.894Z,97615.06
2018-08-07T11:38:02.553Z,97599.33
2018-08-07T11:40:31.953Z,97604.25
2018-08-07T11:43:01.408Z,97604.73
2018-08-07T11:45:31.565Z,97601.30
2018-08-07T11:48:01.073Z,97593.33
2018-08-07T11:50:31.918Z,97584.25
2018-08-07T11:53:01.359Z,97585.40
2018-08-07T11:55:30.527Z,97584.14
2018-08-07T11:57:59.963Z,97584.30
2018-08-07T12:00:35.097Z,97591.20
2018-08-07T12:03:04.755Z,97579.61
2018-08-07T12:05:34.226Z,97571.52
2018-08-07T12:08:03.684Z,97573.95
2018-08-07T12:10:33.181Z,97575.79
2018-08-07T12:13:02.549Z,97577.00
2018-08-07T12:15:31.933Z,97569.36
2018-08-07T12:18:01.269Z,97566.72
2018-08-07T12:20:30.755Z,97573.42
2018-08-07T12:23:00.110Z,97570.59
2018-08-07T12:25:29.549Z,97585.45
2018-08-07T12:27:58.922Z,97578.74
2018-08-07T12:30:29.626Z,97572.23
2018-08-07T12:32:59.553Z,97576.33
2018-08-07T12:35:29.002Z,97575.98
2018-08-07T12:37:58.357Z,97577.33
2018-08-07T12:40:30.004Z,97572.97
2018-08-07T12:43:02.265Z,97575.32
2018-08-07T12:45:32.194Z,97562.80
2018-08-07T12:48:01.674Z,97567.06
2018-08-07T12:50:31.169Z,97566.56
2018-08-07T12:53:00.994Z,97572.16
2018-08-07T12:55:30.490Z,97560.67
2018-08-07T12:57:59.916Z,97559.61
2018-08-07T13:00:32.326Z,97558.24
2018-08-07T13:03:01.490Z,97564.62
2018-08-07T13:05:31.009Z,97557.48
2018-08-07T13:08:00.477Z,97557.02
2018-08-07T13:10:29.930Z,97555.93
2018-08-07T13:12:59.062Z,97560.41
2018-08-07T13:15:28.509Z,97548.84
2018-08-07T13:17:57.945Z,97552.11
2018-08-07T13:20:27.459Z,97546.48
2018-08-07T13:22:56.610Z,97556.20
2018-08-07T13:25:26.153Z,97550.45
2018-08-07T13:27:55.325Z,97541.42
2018-08-07T13:30:26.357Z,97550.66
2018-08-07T13:32:56.227Z,97557.13
2018-08-07T13:35:25.715Z,97556.05
2018-08-07T13:37:55.145Z,97554.02
2018-08-07T13:40:25.401Z,97557.31
2018-08-07T13:42:54.781Z,97557.23
2018-08-07T13:45:25.676Z,97556.91
2018-08-07T13:47:54.744Z,97560.66
2018-08-07T13:50:25.528Z,97567.13
2018-08-07T13:52:54.913Z,97555.18
2018-08-07T13:55:25.311Z,97556.67
2018-08-07T13:57:54.704Z,97557.98
2018-08-07T14:00:27.602Z,97554.07
2018-08-07T14:02:58.105Z,97553.66
2018-08-07T14:05:28.418Z,97542.05
2018-08-07T14:07:58.542Z,97549.51
2018-08-07T14:10:29.408Z,97551.42
2018-08-07T14:12:58.555Z,97550.94
2018-08-07T14:15:29.352Z,97547.20
2018-08-07T14:17:58.705Z,97537.93
2018-08-07T14:20:28.097Z,97545.03
2018-08-07T14:22:57.452Z,97533.42
2018-08-07T14:25:28.761Z,97527.05
2018-08-07T14:27:58.182Z,97537.70
2018-08-07T14:30:29.010Z,97527.17
2018-08-07T14:33:00.459Z,97535.50
2018-08-07T14:35:29.902Z,97549.19
2018-08-07T14:37:59.005Z,97550.61
2018-08-07T14:40:28.693Z,97544.27
2018-08-07T14:42:58.243Z,97547.30
2018-08-07T14:45:29.258Z,97555.25
2018-08-07T14:47:58.969Z,97554.11
2018-08-07T14:50:29.588Z,97557.41
2018-08-07T14:52:58.985Z,97558.45
2018-08-07T14:55:28.449Z,97541.21
2018-08-07T14:57:57.858Z,97557.72
2018-08-07T15:00:28.793Z,97558.64
2018-08-07T15:02:58.182Z,97561.33
2018-08-07T15:05:27.612Z,97564.96
2018-08-07T15:07:57.101Z,97570.41
2018-08-07T15:10:27.574Z,97551.46
2018-08-07T15:12:56.702Z,97574.31
2018-08-07T15:15:31.773Z,97569.41
2018-08-07T15:18:01.195Z,97567.27
2018-08-07T15:20:31.785Z,97559.95
2018-08-07T15:23:01.185Z,97567.73
2018-08-07T15:25:30.679Z,97565.61
2018-08-07T15:28:00.070Z,97565.14
2018-08-07T15:30:29.363Z,97549.13
2018-08-07T15:32:58.513Z,97560.23
2018-08-07T15:35:29.445Z,97555.28
2018-08-07T15:37:59.511Z,97547.17
2018-08-07T15:41:16.069Z,97549.16
2018-08-07T15:43:45.581Z,97553.11
2018-08-07T15:46:15.021Z,97538.55
2018-08-07T15:48:44.497Z,97550.64
2018-08-07T15:51:13.880Z,97542.91
2018-08-07T15:53:43.307Z,97541.25
2018-08-07T15:56:12.761Z,97544.61
2018-08-07T15:58:42.215Z,97545.51
2018-08-07T16:01:11.641Z,97544.47
2018-08-07T16:03:41.279Z,97538.48
2018-08-07T16:06:10.677Z,97532.78
2018-08-07T16:08:40.108Z,97528.39
2018-08-07T16:11:09.537Z,97526.40
2018-08-07T16:13:39.206Z,97518.98
2018-08-07T16:16:08.615Z,97522.08
2018-08-07T16:18:38.008Z,97515.52
2018-08-07T16:21:07.440Z,97519.76
2018-08-07T16:23:36.807Z,97516.22
2018-08-07T16:26:06.278Z,97510.15
2018-08-07T16:28:35.685Z,97513.27
2018-08-07T16:31:05.155Z,97505.06
2018-08-07T16:33:34.550Z,97506.05
2018-08-07T16:36:04.096Z,97497.19
2018-08-07T16:38:33.554Z,97497.18
2018-08-07T16:41:03.021Z,97485.66
2018-08-07T16:43:32.405Z,97478.09
2018-08-07T16:46:01.901Z,97475.70
2018-08-07T16:48:32.701Z,97474.62
2018-08-07T16:51:02.555Z,97474.44
2018-08-07T16:53:32.118Z,97463.30
2018-08-07T16:56:01.529Z,97466.55
2018-08-07T16:58:30.925Z,97460.92
2018-08-07T17:01:00.374Z,97461.39
2018-08-07T17:03:29.849Z,97461.23
2018-08-07T17:05:59.344Z,97451.69
2018-08-07T17:08:28.756Z,97464.98
2018-08-07T17:10:58.173Z,97462.03
2018-08-07T17:13:27.657Z,97464.61
2018-08-07T17:15:57.237Z,97461.36
2018-08-07T17:18:26.668Z,97466.78
2018-08-07T17:20:56.070Z,97466.94
2018-08-07T17:23:25.592Z,97475.15
2018-08-07T17:25:55.058Z,97473.75
2018-08-07T17:28:24.507Z,97481.53
2018-08-07T17:30:53.957Z,97486.05
2018-08-07T17:33:23.415Z,97485.36
2018-08-07T17:35:52.786Z,97492.03
2018-08-07T17:38:22.194Z,97494.27
2018-08-07T17:40:51.597Z,97495.77
2018-08-07T17:43:21.059Z,97504.16
2018-08-07T17:45:50.501Z,97509.30
2018-08-07T17:48:20.630Z,97522.61
2018-08-07T17:50:49.967Z,97523.26
2018-08-07T17:53:19.409Z,97525.22
2018-08-07T17:55:48.734Z,97532.34
2018-08-07T17:58:18.102Z,97536.89
2018-08-07T18:00:47.480Z,97536.64
2018-08-07T18:03:16.945Z,97539.17
2018-08-07T18:05:46.330Z,97533.91
2018-08-07T18:08:16.007Z,97530.89
2018-08-07T18:10:45.349Z,97532.16
2018-08-07T18:13:14.798Z,97528.52
2018-08-07T18:15:44.124Z,97530.33
2018-08-07T18:18:13.473Z,97534.66
2018-08-07T18:20:42.809Z,97519.59
2018-08-07T18:23:12.263Z,97519.07
2018-08-07T18:25:41.608Z,97509.77
2018-08-07T18:28:11.037Z,97509.77
2018-08-07T18:30:40.362Z,97509.58
2018-08-07T18:33:12.578Z,97515.27
2018-08-07T18:35:41.917Z,97518.70
2018-08-07T18:38:11.396Z,97517.70
2018-08-07T18:40:40.740Z,97517.03
2018-08-07T18:43:10.214Z,97521.20
2018-08-07T18:45:39.553Z,97527.70
2018-08-07T18:48:09.047Z,97525.39
2018-08-07T18:50:38.420Z,97523.83
2018-08-07T18:53:07.822Z,97519.70
2018-08-07T18:55:37.182Z,97518.66
2018-08-07T18:58:06.866Z,97515.46
2018-08-07T19:00:36.206Z,97508.77
2018-08-07T19:03:05.669Z,97509.65
2018-08-07T19:05:35.068Z,97516.53
2018-08-07T19:08:04.550Z,97523.20
2018-08-07T19:10:33.882Z,97523.28
2018-08-07T19:13:03.365Z,97531.37
2018-08-07T19:15:32.706Z,97523.75
2018-08-07T19:18:02.050Z,97526.23
2018-08-07T19:20:32.442Z,97524.81
2018-08-07T19:23:01.805Z,97530.38
2018-08-07T19:25:31.321Z,97524.84
2018-08-07T19:28:00.685Z,97522.24
2018-08-07T19:30:30.181Z,97522.83
2018-08-07T19:32:59.742Z,97523.44
2018-08-07T19:35:29.097Z,97539.03
2018-08-07T19:37:58.517Z,97544.23
2018-08-07T19:40:27.877Z,97550.49
2018-08-07T19:42:57.287Z,97553.23
2018-08-07T19:45:26.666Z,97560.38
2018-08-07T19:47:56.248Z,97567.47
2018-08-07T19:50:25.650Z,97569.23
2018-08-07T19:52:55.299Z,97566.15
2018-08-07T19:55:24.786Z,97563.17
2018-08-07T19:57:54.299Z,97563.31
2018-08-07T20:00:26.364Z,97557.64
2018-08-07T20:02:57.286Z,97566.23
2018-08-07T20:05:26.831Z,97570.23
2018-08-07T20:07:57.076Z,97574.23
2018-08-07T20:10:26.532Z,97581.24
2018-08-07T20:12:56.046Z,97581.77
2018-08-07T20:15:26.881Z,97584.23
2018-08-07T20:17:58.375Z,97580.91
2018-08-07T20:20:28.293Z,97577.53
2018-08-07T20:22:58.110Z,97581.13
2018-08-07T20:25:27.684Z,97575.16
2018-08-07T20:27:57.790Z,97571.42
2018-08-07T20:30:27.366Z,97568.41
2018-08-07T20:32:57.993Z,97571.52
2018-08-07T20:35:27.564Z,97569.11
2018-08-07T20:37:57.264Z,97572.31
2018-08-07T20:40:27.847Z,97570.84
2018-08-07T20:42:59.015Z,97577.57
2018-08-07T20:45:28.584Z,97572.77
2018-08-07T20:47:58.187Z,97572.91
2018-08-07T20:50:27.887Z,97573.56
2018-08-07T20:52:57.633Z,97580.20
2018-08-07T20:55:27.009Z,97584.61
2018-08-07T20:57:56.577Z,97580.80
2018-08-07T21:00:27.428Z,97579.25
2018-08-07T21:02:57.104Z,97583.59
2018-08-07T21:05:26.776Z,97580.06
2018-08-07T21:07:56.429Z,97585.14
2018-08-07T21:10:27.700Z,97583.50
2018-08-07T21:12:57.660Z,97581.45
2018-08-07T21:15:27.224Z,97582.47
2018-08-07T21:17:56.734Z,97590.73
2018-08-07T21:20:26.137Z,97588.88
2018-08-07T21:22:55.622Z,97590.52
2018-08-07T21:25:25.438Z,97595.17
2018-08-07T21:27:57.284Z,97589.86
2018-08-07T21:30:31.075Z,97590.59
2018-08-07T21:33:00.513Z,97590.70
2018-08-07T21:35:29.987Z,97597.69
2018-08-07T21:37:59.357Z,97602.14
2018-08-07T21:40:28.825Z,97608.31
2018-08-07T21:42:58.249Z,97604.64
2018-08-07T21:45:27.707Z,97611.96
2018-08-07T21:47:57.070Z,97605.67
2018-08-07T21:50:26.917Z,97611.02
2018-08-07T21:52:56.285Z,97601.04
2018-08-07T21:55:25.645Z,97604.46
2018-08-07T21:57:54.992Z,97604.09
2018-08-07T22:00:44.698Z,97604.27
2018-08-07T22:03:15.106Z,97598.80
2018-08-07T22:05:44.473Z,97590.61
2018-08-07T22:08:15.311Z,97586.91
2018-08-07T22:10:45.779Z,97583.09
2018-08-07T22:13:16.078Z,97574.58
2018-08-07T22:15:46.468Z,97569.81
2018-08-07T22:18:16.943Z,97569.70
2018-08-07T22:20:47.986Z,97564.31
2018-08-07T22:23:17.422Z,97564.43
2018-08-07T22:25:46.926Z,97561.64
2018-08-07T22:28:21.943Z,97559.05
2018-08-07T22:30:51.893Z,97548.93
2018-08-07T22:33:21.312Z,97546.98
2018-08-07T22:35:50.849Z,97540.13
2018-08-07T22:38:20.354Z,97540.44
2018-08-07T22:40:49.687Z,97538.23
2018-08-07T22:43:19.202Z,97541.89
2018-08-07T22:45:48.480Z,97532.58
2018-08-07T22:48:17.835Z,97530.66
2018-08-07T22:50:47.179Z,97521.94
2018-08-07T22:53:16.633Z,97521.94
2018-08-07T22:55:45.950Z,97516.17
2018-08-07T22:58:15.348Z,97505.45
2018-08-07T23:00:44.693Z,97499.47
2018-08-07T23:03:14.134Z,97502.36
2018-08-07T23:05:43.469Z,97496.73
2018-08-07T23:08:12.845Z,97495.64
2018-08-07T23:10:42.193Z,97507.64
2018-08-07T23:13:11.545Z,97509.41
2018-08-07T23:15:40.881Z,97506.80
2018-08-07T23:18:10.232Z,97506.05
2018-08-07T23:20:39.558Z,97501.90
2018-08-07T23:23:08.948Z,97493.28
2018-08-07T23:25:38.293Z,97489.84
2018-08-07T23:28:07.858Z,97479.73
2018-08-07T23:30:37.197Z,97473.30
2018-08-07T23:33:06.566Z,97470.55
2018-08-07T23:35:35.949Z,97469.42
2018-08-07T23:38:05.365Z,97472.55
2018-08-07T23:40:34.718Z,97471.84
2018-08-07T23:44:28.566Z,97469.77
2018-08-07T23:46:57.949Z,97467.55
2018-08-07T23:49:27.299Z,97462.94
2018-08-07T23:51:56.644Z,97457.67
2018-08-07T23:54:25.984Z,97451.70
2018-08-07T23:56:55.368Z,97448.55
2018-08-07T23:59:24.701Z,97448.19
